createdAt,value
2017-09-20T00:00:42.141Z,16.2
2017-09-20T00:01:44.589Z,16.2
2017-09-20T00:02:47.024Z,16.2
2017-09-20T00:03:49.469Z,16.2
2017-09-20T00:04:51.914Z,16.2
2017-09-20T00:05:54.362Z,16.2
2017-09-20T00:06:56.806Z,16.3
2017-09-20T00:07:59.250Z,16.3
2017-09-20T00:09:01.689Z,16.2
2017-09-20T00:10:04.492Z,16.3
2017-09-20T00:11:06.934Z,16.3
2017-09-20T00:12:09.375Z,16.3
2017-09-20T00:13:11.819Z,16.3
2017-09-20T00:14:14.267Z,16.3
2017-09-20T00:15:16.715Z,16.3
2017-09-20T00:16:19.162Z,16.3
2017-09-20T00:17:21.939Z,16.3
2017-09-20T00:18:24.385Z,16.3
2017-09-20T00:19:26.831Z,16.4
2017-09-20T00:20:29.277Z,16.3
2017-09-20T00:21:32.064Z,16.3
2017-09-20T00:22:34.509Z,16.3
2017-09-20T00:23:36.952Z,16.3
2017-09-20T00:24:39.409Z,16.3
2017-09-20T00:25:41.862Z,16.3
2017-09-20T00:26:44.309Z,16.3
2017-09-20T00:27:46.759Z,16.3
2017-09-20T00:28:49.205Z,16.4
2017-09-20T00:29:51.649Z,16.3
2017-09-20T00:30:54.095Z,16.3
2017-09-20T00:31:56.888Z,16.3
2017-09-20T00:32:59.324Z,16.3
2017-09-20T00:34:01.773Z,16.3
2017-09-20T00:35:04.215Z,16.3
2017-09-20T00:36:06.660Z,16.3
2017-09-20T00:37:09.107Z,16.3
2017-09-20T00:38:11.552Z,16.3
2017-09-20T00:39:13.997Z,16.3
2017-09-20T00:40:16.449Z,16.3
2017-09-20T00:41:18.892Z,16.3
2017-09-20T00:42:21.342Z,16.4
2017-09-20T00:43:23.782Z,16.3
2017-09-20T00:44:26.228Z,16.4
2017-09-20T00:45:28.676Z,16.4
2017-09-20T00:46:31.125Z,16.4
2017-09-20T00:47:33.562Z,16.4
2017-09-20T00:48:36.010Z,16.4
2017-09-20T00:49:38.454Z,16.4
2017-09-20T00:50:40.899Z,16.4
2017-09-20T00:51:43.347Z,16.4
2017-09-20T00:52:45.789Z,16.4
2017-09-20T00:53:48.235Z,16.4
2017-09-20T00:54:50.678Z,16.4
2017-09-20T00:55:53.121Z,16.4
2017-09-20T00:56:55.566Z,16.4
2017-09-20T00:57:58.001Z,16.4
2017-09-20T00:59:00.447Z,16.4
2017-09-20T01:00:02.897Z,16.4
2017-09-20T01:01:05.345Z,16.4
2017-09-20T01:02:07.785Z,16.4
2017-09-20T01:03:10.576Z,16.4
2017-09-20T01:04:13.023Z,16.4
2017-09-20T01:05:15.472Z,16.4
2017-09-20T01:06:17.918Z,16.4
2017-09-20T01:07:20.354Z,16.4
2017-09-20T01:08:22.803Z,16.4
2017-09-20T01:09:25.260Z,16.4
2017-09-20T01:10:28.042Z,16.4
2017-09-20T01:11:30.485Z,16.4
2017-09-20T01:12:32.920Z,16.4
2017-09-20T01:13:35.367Z,16.4
2017-09-20T01:14:37.818Z,16.3
2017-09-20T01:15:40.262Z,16.3
2017-09-20T01:16:42.705Z,16.3
2017-09-20T01:17:45.151Z,16.3
2017-09-20T01:18:47.593Z,16.3
2017-09-20T01:19:50.047Z,16.3
2017-09-20T01:20:52.493Z,16.3
2017-09-20T01:21:54.935Z,16.3
2017-09-20T01:22:57.380Z,16.3
2017-09-20T01:23:59.841Z,16.3
2017-09-20T01:25:02.636Z,16.3
2017-09-20T01:26:05.074Z,16.3
2017-09-20T01:27:07.516Z,16.3
2017-09-20T01:28:09.962Z,16.3
2017-09-20T01:29:12.408Z,16.3
2017-09-20T01:30:14.852Z,16.2
2017-09-20T01:31:17.297Z,16.2
2017-09-20T01:32:19.738Z,16.2
2017-09-20T01:33:22.188Z,16.2
2017-09-20T01:34:24.639Z,16.2
2017-09-20T01:35:27.080Z,16.2
2017-09-20T01:36:29.529Z,16.2
2017-09-20T01:37:31.974Z,16.2
2017-09-20T01:38:34.414Z,16.2
2017-09-20T01:39:36.862Z,16.2
2017-09-20T01:40:39.299Z,16.2
2017-09-20T01:41:41.747Z,16.2
2017-09-20T01:42:44.193Z,16.2
2017-09-20T01:43:46.642Z,16.2
2017-09-20T01:44:49.082Z,16.2
2017-09-20T01:45:51.872Z,16.2
2017-09-20T01:46:54.654Z,16.1
2017-09-20T01:47:57.110Z,16.1
2017-09-20T01:48:59.556Z,16.1
2017-09-20T01:50:01.996Z,16.1
2017-09-20T01:51:04.440Z,16.1
2017-09-20T01:52:06.886Z,16.2
2017-09-20T01:53:09.329Z,16.1
2017-09-20T01:54:11.773Z,16.1
2017-09-20T01:55:14.221Z,16.2
2017-09-20T01:56:16.665Z,16.1
2017-09-20T01:57:19.102Z,16.2
2017-09-20T01:58:21.553Z,16.2
2017-09-20T01:59:23.995Z,16.2
2017-09-20T02:00:26.441Z,16.1
2017-09-20T02:01:28.893Z,16.1
2017-09-20T02:02:31.337Z,16.1
2017-09-20T02:03:33.783Z,16.1
2017-09-20T02:04:36.233Z,16.1
2017-09-20T02:05:38.675Z,16.1
2017-09-20T02:06:41.126Z,16.1
2017-09-20T02:07:44.247Z,16.1
2017-09-20T02:08:46.689Z,16.1
2017-09-20T02:09:49.475Z,16.1
2017-09-20T02:10:51.921Z,16.1
2017-09-20T02:11:54.362Z,16.1
2017-09-20T02:12:56.812Z,16.1
2017-09-20T02:13:59.258Z,16.1
2017-09-20T02:15:02.048Z,16.1
2017-09-20T02:16:04.497Z,16.1
2017-09-20T02:17:06.941Z,16.1
2017-09-20T02:18:09.384Z,16.1
2017-09-20T02:19:11.837Z,16.1
2017-09-20T02:20:14.280Z,16.1
2017-09-20T02:21:16.727Z,16.1
2017-09-20T02:22:19.170Z,16.1
2017-09-20T02:23:21.617Z,16.1
2017-09-20T02:24:24.060Z,16.1
2017-09-20T02:25:26.498Z,16
2017-09-20T02:26:28.937Z,16
2017-09-20T02:27:31.379Z,16
2017-09-20T02:28:33.819Z,16
2017-09-20T02:29:36.265Z,16
2017-09-20T02:30:38.721Z,16
2017-09-20T02:31:41.158Z,15.9
2017-09-20T02:32:43.611Z,16
2017-09-20T02:33:46.393Z,16
2017-09-20T02:34:48.839Z,16
2017-09-20T02:35:51.284Z,16
2017-09-20T02:36:53.728Z,15.9
2017-09-20T02:37:56.165Z,15.9
2017-09-20T02:38:58.611Z,16
2017-09-20T02:40:01.052Z,15.9
2017-09-20T02:41:03.497Z,15.9
2017-09-20T02:42:05.946Z,15.9
2017-09-20T02:43:09.088Z,15.9
2017-09-20T02:44:11.529Z,15.9
2017-09-20T02:45:13.975Z,15.9
2017-09-20T02:46:16.415Z,15.9
2017-09-20T02:47:18.868Z,15.9
2017-09-20T02:48:21.307Z,15.9
2017-09-20T02:49:23.754Z,15.8
2017-09-20T02:50:26.200Z,15.8
2017-09-20T02:51:28.981Z,15.8
2017-09-20T02:52:31.416Z,15.8
2017-09-20T02:53:33.870Z,15.8
2017-09-20T02:54:36.316Z,15.8
2017-09-20T02:55:38.762Z,15.8
2017-09-20T02:56:41.202Z,15.7
2017-09-20T02:57:43.649Z,15.7
2017-09-20T02:58:46.098Z,15.7
2017-09-20T02:59:48.547Z,15.7
2017-09-20T03:00:50.991Z,15.7
2017-09-20T03:01:53.431Z,15.7
2017-09-20T03:02:55.871Z,15.7
2017-09-20T03:03:58.319Z,15.7
2017-09-20T03:05:00.760Z,15.7
2017-09-20T03:06:03.196Z,15.7
2017-09-20T03:07:05.642Z,15.7
2017-09-20T03:08:08.083Z,15.6
2017-09-20T03:09:10.525Z,15.7
2017-09-20T03:10:12.975Z,15.6
2017-09-20T03:11:15.763Z,15.6
2017-09-20T03:12:18.205Z,15.7
2017-09-20T03:13:20.653Z,15.6
2017-09-20T03:14:23.099Z,15.6
2017-09-20T03:15:25.538Z,15.6
2017-09-20T03:16:27.981Z,15.6
2017-09-20T03:17:30.421Z,15.6
2017-09-20T03:18:32.879Z,15.6
2017-09-20T03:19:35.325Z,15.6
2017-09-20T03:20:37.762Z,15.6
2017-09-20T03:21:40.209Z,15.6
2017-09-20T03:22:42.654Z,15.6
2017-09-20T03:23:45.101Z,15.6
2017-09-20T03:24:47.548Z,15.6
2017-09-20T03:25:49.993Z,15.6
2017-09-20T03:26:52.805Z,15.6
2017-09-20T03:27:55.251Z,15.5
2017-09-20T03:28:57.701Z,15.5
2017-09-20T03:30:00.148Z,15.5
2017-09-20T03:31:02.950Z,15.5
2017-09-20T03:32:05.743Z,15.5
2017-09-20T03:33:08.183Z,15.5
2017-09-20T03:34:10.622Z,15.5
2017-09-20T03:35:13.073Z,15.5
2017-09-20T03:36:15.512Z,15.5
2017-09-20T03:37:17.966Z,15.5
2017-09-20T03:38:20.402Z,15.5
2017-09-20T03:39:22.848Z,15.5
2017-09-20T03:40:25.289Z,15.5
2017-09-20T03:41:27.730Z,15.5
2017-09-20T03:42:30.175Z,15.5
2017-09-20T03:43:32.625Z,15.5
2017-09-20T03:44:35.063Z,15.5
2017-09-20T03:45:37.515Z,15.5
2017-09-20T03:46:39.956Z,15.5
2017-09-20T03:47:42.402Z,15.5
2017-09-20T03:48:44.852Z,15.5
2017-09-20T03:49:47.302Z,15.5
2017-09-20T03:50:49.741Z,15.5
2017-09-20T03:51:52.182Z,15.4
2017-09-20T03:52:54.626Z,15.5
2017-09-20T03:53:57.061Z,15.5
2017-09-20T03:54:59.506Z,15.4
2017-09-20T03:56:01.956Z,15.4
2017-09-20T03:57:04.391Z,15.4
2017-09-20T03:58:07.223Z,15.4
2017-09-20T03:59:09.665Z,15.4
2017-09-20T04:00:12.105Z,15.4
2017-09-20T04:01:14.559Z,15.5
2017-09-20T04:02:17.001Z,15.4
2017-09-20T04:03:19.434Z,15.4
2017-09-20T04:04:21.888Z,15.4
2017-09-20T04:05:24.338Z,15.5
2017-09-20T04:06:26.786Z,15.5
2017-09-20T04:07:29.236Z,15.5
2017-09-20T04:08:31.668Z,15.5
2017-09-20T04:09:34.110Z,15.5
2017-09-20T04:10:36.562Z,15.5
2017-09-20T04:11:38.999Z,15.5
2017-09-20T04:12:41.439Z,15.5
2017-09-20T04:13:43.886Z,15.5
2017-09-20T04:14:46.323Z,15.5
2017-09-20T04:15:48.778Z,15.5
2017-09-20T04:16:51.222Z,15.5
2017-09-20T04:17:53.659Z,15.5
2017-09-20T04:18:56.107Z,15.5
2017-09-20T04:19:58.558Z,15.5
2017-09-20T04:21:01.001Z,15.5
2017-09-20T04:22:03.443Z,15.5
2017-09-20T04:23:05.895Z,15.5
2017-09-20T04:24:08.342Z,15.5
2017-09-20T04:25:10.777Z,15.5
2017-09-20T04:26:13.226Z,15.6
2017-09-20T04:27:15.680Z,15.6
2017-09-20T04:28:18.126Z,15.6
2017-09-20T04:29:20.562Z,15.6
2017-09-20T04:30:23.009Z,15.6
2017-09-20T04:31:25.451Z,15.6
2017-09-20T04:32:27.896Z,15.6
2017-09-20T04:33:30.339Z,15.6
2017-09-20T04:34:32.774Z,15.6
2017-09-20T04:35:35.562Z,15.5
2017-09-20T04:36:38.021Z,15.5
2017-09-20T04:37:40.461Z,15.5
2017-09-20T04:38:42.903Z,15.5
2017-09-20T04:39:45.348Z,15.5
2017-09-20T04:40:47.797Z,15.5
2017-09-20T04:41:50.251Z,15.5
2017-09-20T04:42:52.695Z,15.5
2017-09-20T04:43:55.130Z,15.5
2017-09-20T04:44:57.576Z,15.5
2017-09-20T04:46:00.020Z,15.6
2017-09-20T04:47:02.467Z,15.6
2017-09-20T04:48:04.910Z,15.6
2017-09-20T04:49:07.344Z,15.6
2017-09-20T04:50:09.791Z,15.6
2017-09-20T04:51:12.592Z,15.6
2017-09-20T04:52:15.388Z,15.6
2017-09-20T04:53:17.831Z,15.5
2017-09-20T04:54:20.271Z,15.6
2017-09-20T04:55:22.709Z,15.5
2017-09-20T04:56:25.152Z,15.6
2017-09-20T04:57:27.937Z,15.6
2017-09-20T04:58:30.384Z,15.6
2017-09-20T04:59:32.822Z,15.6
2017-09-20T05:00:35.274Z,15.6
2017-09-20T05:01:37.719Z,15.6
2017-09-20T05:02:40.172Z,15.6
2017-09-20T05:03:42.624Z,15.6
2017-09-20T05:04:45.070Z,15.6
2017-09-20T05:05:47.516Z,15.7
2017-09-20T05:06:49.970Z,15.6
2017-09-20T05:07:52.405Z,15.6
2017-09-20T05:08:54.852Z,15.7
2017-09-20T05:09:57.294Z,15.7
2017-09-20T05:11:00.078Z,15.7
2017-09-20T05:12:02.527Z,15.7
2017-09-20T05:13:04.974Z,15.7
2017-09-20T05:14:07.409Z,15.7
2017-09-20T05:15:09.861Z,15.7
2017-09-20T05:16:12.305Z,15.7
2017-09-20T05:17:15.099Z,15.7
2017-09-20T05:18:17.543Z,15.7
2017-09-20T05:19:19.986Z,15.7
2017-09-20T05:20:22.430Z,15.8
2017-09-20T05:21:24.882Z,15.8
2017-09-20T05:22:27.329Z,15.8
2017-09-20T05:23:29.774Z,15.8
2017-09-20T05:24:32.211Z,15.8
2017-09-20T05:25:34.648Z,15.8
2017-09-20T05:26:37.098Z,15.8
2017-09-20T05:27:39.888Z,15.9
2017-09-20T05:28:42.328Z,15.9
2017-09-20T05:29:45.111Z,15.9
2017-09-20T05:30:47.555Z,15.9
2017-09-20T05:31:50.357Z,15.9
2017-09-20T05:32:53.169Z,15.9
2017-09-20T05:33:55.597Z,15.9
2017-09-20T05:34:58.043Z,15.9
2017-09-20T05:36:00.490Z,16
2017-09-20T05:37:02.935Z,16
2017-09-20T05:38:05.382Z,16
2017-09-20T05:39:08.171Z,16
2017-09-20T05:40:10.610Z,16
2017-09-20T05:41:13.056Z,16
2017-09-20T05:42:15.501Z,16
2017-09-20T05:43:17.934Z,16
2017-09-20T05:44:20.385Z,16
2017-09-20T05:45:22.834Z,16
2017-09-20T05:46:25.284Z,16
2017-09-20T05:47:27.734Z,16.1
2017-09-20T05:48:30.175Z,16.1
2017-09-20T05:49:32.961Z,16.1
2017-09-20T05:50:35.416Z,16.1
2017-09-20T05:51:37.861Z,16.1
2017-09-20T05:52:40.312Z,16.2
2017-09-20T05:53:42.758Z,16.2
2017-09-20T05:54:45.208Z,16.2
2017-09-20T05:55:47.647Z,16.2
2017-09-20T05:56:50.091Z,16.3
2017-09-20T05:57:52.543Z,16.2
2017-09-20T05:58:54.980Z,16.3
2017-09-20T05:59:57.420Z,16.4
2017-09-20T06:00:59.869Z,16.4
2017-09-20T06:02:02.659Z,16.4
2017-09-20T06:03:05.110Z,16.4
2017-09-20T06:04:07.895Z,16.5
2017-09-20T06:05:10.326Z,16.5
2017-09-20T06:06:12.783Z,16.5
2017-09-20T06:07:15.225Z,16.5
2017-09-20T06:08:17.676Z,16.5
2017-09-20T06:09:20.123Z,16.6
2017-09-20T06:10:22.568Z,16.6
2017-09-20T06:11:25.376Z,16.6
2017-09-20T06:12:27.821Z,16.6
2017-09-20T06:13:30.263Z,16.6
2017-09-20T06:14:32.719Z,16.6
2017-09-20T06:15:35.161Z,16.6
2017-09-20T06:16:37.610Z,16.6
2017-09-20T06:17:40.053Z,16.7
2017-09-20T06:18:42.502Z,16.6
2017-09-20T06:19:44.944Z,16.6
2017-09-20T06:20:47.386Z,16.6
2017-09-20T06:21:50.180Z,16.6
2017-09-20T06:22:52.626Z,16.6
2017-09-20T06:23:55.063Z,16.6
2017-09-20T06:24:57.508Z,16.6
2017-09-20T06:25:59.951Z,16.7
2017-09-20T06:27:02.391Z,16.7
2017-09-20T06:28:04.843Z,16.6
2017-09-20T06:29:07.278Z,16.7
2017-09-20T06:30:09.728Z,16.7
2017-09-20T06:31:12.183Z,16.7
2017-09-20T06:32:14.624Z,16.7
2017-09-20T06:33:17.074Z,16.7
2017-09-20T06:34:19.520Z,16.7
2017-09-20T06:35:21.963Z,16.7
2017-09-20T06:36:24.402Z,16.7
2017-09-20T06:37:26.845Z,16.7
2017-09-20T06:38:29.287Z,16.7
2017-09-20T06:39:31.737Z,16.7
2017-09-20T06:40:34.183Z,16.7
2017-09-20T06:41:36.971Z,16.7
2017-09-20T06:42:39.406Z,16.7
2017-09-20T06:43:41.855Z,16.7
2017-09-20T06:44:44.298Z,16.7
2017-09-20T06:45:47.102Z,16.7
2017-09-20T06:46:49.895Z,16.8
2017-09-20T06:47:52.338Z,16.8
2017-09-20T06:48:54.785Z,16.8
2017-09-20T06:49:57.235Z,16.8
2017-09-20T06:50:59.679Z,16.9
2017-09-20T06:52:02.121Z,16.9
2017-09-20T06:53:04.570Z,16.9
2017-09-20T06:54:07.019Z,16.9
2017-09-20T06:55:09.473Z,16.9
2017-09-20T06:56:11.929Z,17
2017-09-20T06:57:14.391Z,17
2017-09-20T06:58:16.871Z,17
2017-09-20T06:59:19.635Z,17
2017-09-20T07:00:22.083Z,17
2017-09-20T07:01:24.531Z,17.1
2017-09-20T07:02:27.321Z,17.1
2017-09-20T07:03:29.765Z,17.1
2017-09-20T07:04:32.210Z,17.1
2017-09-20T07:05:34.662Z,17.2
2017-09-20T07:06:37.098Z,17.2
2017-09-20T07:07:39.544Z,17.2
2017-09-20T07:08:41.994Z,17.3
2017-09-20T07:09:44.449Z,17.3
2017-09-20T07:10:46.896Z,17.4
2017-09-20T07:11:49.339Z,17.4
2017-09-20T07:12:51.785Z,17.5
2017-09-20T07:13:54.244Z,17.5
2017-09-20T07:14:56.696Z,17.6
2017-09-20T07:15:59.136Z,17.6
2017-09-20T07:17:01.619Z,17.7
2017-09-20T07:18:04.727Z,17.7
2017-09-20T07:19:07.173Z,17.7
2017-09-20T07:20:09.631Z,17.8
2017-09-20T07:21:12.078Z,17.8
2017-09-20T07:22:14.874Z,17.9
2017-09-20T07:23:17.315Z,17.9
2017-09-20T07:24:19.763Z,17.8
2017-09-20T07:25:22.216Z,17.9
2017-09-20T07:26:24.669Z,17.9
2017-09-20T07:27:27.113Z,17.9
2017-09-20T07:28:29.567Z,17.9
2017-09-20T07:29:32.015Z,17.9
2017-09-20T07:30:34.463Z,17.9
2017-09-20T07:31:37.256Z,17.9
2017-09-20T07:32:39.708Z,18
2017-09-20T07:33:42.157Z,18
2017-09-20T07:34:44.948Z,18
2017-09-20T07:35:47.401Z,18.1
2017-09-20T07:36:49.852Z,18.1
2017-09-20T07:37:52.297Z,18.1
2017-09-20T07:38:55.090Z,18.2
2017-09-20T07:39:57.881Z,18.3
2017-09-20T07:41:00.332Z,18.3
2017-09-20T07:42:02.785Z,18.4
2017-09-20T07:43:05.578Z,18.4
2017-09-20T07:44:08.032Z,18.4
2017-09-20T07:45:10.486Z,18.4
2017-09-20T07:46:12.928Z,18.4
2017-09-20T07:47:15.385Z,18.4
2017-09-20T07:48:17.832Z,18.4
2017-09-20T07:49:20.278Z,18.4
2017-09-20T07:50:22.732Z,18.4
2017-09-20T07:51:25.212Z,18.4
2017-09-20T07:52:28.006Z,18.4
2017-09-20T07:53:30.462Z,18.3
2017-09-20T07:54:32.922Z,18.2
2017-09-20T07:55:35.742Z,18.2
2017-09-20T07:56:38.184Z,18.2
2017-09-20T07:57:40.629Z,18.2
2017-09-20T07:58:43.077Z,18.2
2017-09-20T07:59:45.543Z,18.2
2017-09-20T08:00:47.995Z,18.2
2017-09-20T08:01:50.440Z,18.2
2017-09-20T08:02:52.889Z,18.1
2017-09-20T08:03:55.344Z,18.1
2017-09-20T08:04:57.792Z,18.1
2017-09-20T08:06:00.244Z,18
2017-09-20T08:07:02.686Z,18
2017-09-20T08:08:05.134Z,18
2017-09-20T08:09:07.578Z,17.9
2017-09-20T08:10:10.029Z,17.9
2017-09-20T08:11:12.467Z,17.9
2017-09-20T08:12:14.920Z,17.9
2017-09-20T08:13:17.386Z,17.9
2017-09-20T08:14:19.828Z,17.9
2017-09-20T08:15:22.626Z,17.9
2017-09-20T08:16:25.084Z,17.9
2017-09-20T08:17:27.533Z,17.9
2017-09-20T08:18:29.984Z,18
2017-09-20T08:19:32.433Z,18
2017-09-20T08:20:35.220Z,18
2017-09-20T08:21:37.670Z,18
2017-09-20T08:22:40.120Z,18
2017-09-20T08:23:42.570Z,18
2017-09-20T08:24:45.024Z,18
2017-09-20T08:25:47.474Z,18
2017-09-20T08:26:49.918Z,18
2017-09-20T08:27:52.377Z,17.9
2017-09-20T08:28:54.824Z,17.9
2017-09-20T08:29:57.270Z,17.9
2017-09-20T08:30:59.717Z,17.9
2017-09-20T08:32:02.515Z,17.9
2017-09-20T08:33:04.969Z,17.9
2017-09-20T08:34:07.414Z,18
2017-09-20T08:35:09.854Z,18
2017-09-20T08:36:12.303Z,18
2017-09-20T08:37:14.761Z,18
2017-09-20T08:38:17.206Z,18.1
2017-09-20T08:39:19.649Z,18.1
2017-09-20T08:40:22.102Z,18.2
2017-09-20T08:41:24.548Z,18.2
2017-09-20T08:42:26.993Z,18.2
2017-09-20T08:43:29.443Z,18.2
2017-09-20T08:44:31.881Z,18.2
2017-09-20T08:45:34.326Z,18.3
2017-09-20T08:46:36.785Z,18.3
2017-09-20T08:47:39.228Z,18.3
2017-09-20T08:48:41.675Z,18.3
2017-09-20T08:49:44.127Z,18.3
2017-09-20T08:50:46.579Z,18.2
2017-09-20T08:51:49.015Z,18.3
2017-09-20T08:52:51.467Z,18.3
2017-09-20T08:53:53.916Z,18.2
2017-09-20T08:54:56.367Z,18.3
2017-09-20T08:55:58.809Z,18.2
2017-09-20T08:57:01.259Z,18.2
2017-09-20T08:58:04.052Z,18.2
2017-09-20T08:59:06.850Z,18.2
2017-09-20T09:00:09.300Z,18.1
2017-09-20T09:01:11.759Z,18.2
2017-09-20T09:02:14.205Z,18.1
2017-09-20T09:03:16.661Z,18.1
2017-09-20T09:04:19.102Z,18.2
2017-09-20T09:05:21.905Z,18.2
2017-09-20T09:06:24.351Z,18.2
2017-09-20T09:07:26.800Z,18.2
2017-09-20T09:08:29.253Z,18.2
2017-09-20T09:09:32.612Z,18.3
2017-09-20T09:10:36.583Z,18.3
2017-09-20T09:11:39.038Z,18.3
2017-09-20T09:12:41.484Z,18.3
2017-09-20T09:13:45.902Z,18.3
2017-09-20T09:14:48.347Z,18.3
2017-09-20T09:15:51.759Z,18.3
2017-09-20T09:16:54.544Z,18.3
2017-09-20T09:17:56.999Z,18.3
2017-09-20T09:18:59.441Z,18.3
2017-09-20T09:20:02.264Z,18.3
2017-09-20T09:21:04.710Z,18.3
2017-09-20T09:22:07.162Z,18.3
2017-09-20T09:23:10.600Z,18.3
2017-09-20T09:24:15.201Z,18.4
2017-09-20T09:25:18.978Z,18.4
2017-09-20T09:26:23.595Z,18.3
2017-09-20T09:27:27.379Z,18.3
2017-09-20T09:28:31.506Z,18.4
2017-09-20T09:29:34.441Z,18.4
2017-09-20T09:30:37.232Z,18.4
2017-09-20T09:31:39.932Z,18.4
2017-09-20T09:32:43.808Z,18.3
2017-09-20T09:33:46.247Z,18.4
2017-09-20T09:34:49.655Z,18.4
2017-09-20T09:35:52.099Z,18.4
2017-09-20T09:36:54.551Z,18.3
2017-09-20T09:37:57.074Z,18.3
2017-09-20T09:38:59.577Z,18.3
2017-09-20T09:40:03.455Z,18.2
2017-09-20T09:41:06.121Z,18.2
2017-09-20T09:42:09.997Z,18.2
2017-09-20T09:43:12.489Z,18.2
2017-09-20T09:44:17.838Z,18.2
2017-09-20T09:45:21.739Z,18.1
2017-09-20T09:46:24.614Z,18.1
2017-09-20T09:47:27.400Z,18.1
2017-09-20T09:48:29.848Z,18.1
2017-09-20T09:49:32.296Z,18.1
2017-09-20T09:50:35.111Z,18.1
2017-09-20T09:51:37.566Z,18.1
2017-09-20T09:52:40.020Z,18.2
2017-09-20T09:53:42.465Z,18.2
2017-09-20T09:54:44.912Z,18.2
2017-09-20T09:55:47.365Z,18.3
2017-09-20T09:56:49.809Z,18.4
2017-09-20T09:57:52.256Z,18.4
2017-09-20T09:58:54.702Z,18.4
2017-09-20T09:59:57.145Z,18.5
2017-09-20T10:00:59.602Z,18.6
2017-09-20T10:02:02.051Z,18.7
2017-09-20T10:03:04.492Z,18.8
2017-09-20T10:04:06.941Z,18.9
2017-09-20T10:05:09.731Z,19
2017-09-20T10:06:12.189Z,19.1
2017-09-20T10:07:14.977Z,19.2
2017-09-20T10:08:17.416Z,19.3
2017-09-20T10:09:20.221Z,19.4
2017-09-20T10:10:22.671Z,19.4
2017-09-20T10:11:25.121Z,19.5
2017-09-20T10:12:27.921Z,19.5
2017-09-20T10:13:30.366Z,19.5
2017-09-20T10:14:32.810Z,19.5
2017-09-20T10:15:35.265Z,19.5
2017-09-20T10:16:38.074Z,19.5
2017-09-20T10:17:40.514Z,19.5
2017-09-20T10:18:42.963Z,19.5
2017-09-20T10:19:45.420Z,19.5
2017-09-20T10:20:47.868Z,19.5
2017-09-20T10:21:50.317Z,19.4
2017-09-20T10:22:52.767Z,19.3
2017-09-20T10:23:55.214Z,19.3
2017-09-20T10:24:57.664Z,19.3
2017-09-20T10:26:00.119Z,19.1
2017-09-20T10:27:02.552Z,19.1
2017-09-20T10:28:05.000Z,19
2017-09-20T10:29:07.450Z,18.9
2017-09-20T10:30:09.905Z,18.9
2017-09-20T10:31:12.356Z,18.9
2017-09-20T10:32:15.143Z,18.8
2017-09-20T10:33:17.590Z,18.8
2017-09-20T10:34:20.046Z,18.7
2017-09-20T10:35:22.497Z,18.7
2017-09-20T10:36:24.950Z,18.7
2017-09-20T10:37:27.385Z,18.7
2017-09-20T10:38:30.180Z,18.7
2017-09-20T10:39:32.628Z,18.7
2017-09-20T10:40:35.082Z,18.7
2017-09-20T10:41:37.520Z,18.7
2017-09-20T10:42:40.314Z,18.8
2017-09-20T10:43:42.768Z,18.8
2017-09-20T10:44:45.219Z,18.8
2017-09-20T10:45:47.664Z,18.8
2017-09-20T10:46:50.110Z,18.8
2017-09-20T10:47:52.924Z,18.8
2017-09-20T10:48:55.714Z,18.7
2017-09-20T10:49:58.164Z,18.7
2017-09-20T10:51:00.620Z,18.8
2017-09-20T10:52:03.062Z,18.8
2017-09-20T10:53:05.510Z,18.8
2017-09-20T10:54:08.311Z,18.8
2017-09-20T10:55:10.758Z,18.9
2017-09-20T10:56:13.205Z,18.9
2017-09-20T10:57:15.996Z,18.9
2017-09-20T10:58:18.438Z,19
2017-09-20T10:59:20.889Z,19
2017-09-20T11:00:23.344Z,19
2017-09-20T11:01:25.793Z,19
2017-09-20T11:02:28.240Z,19
2017-09-20T11:03:30.690Z,19.1
2017-09-20T11:04:33.475Z,19
2017-09-20T11:05:35.937Z,19.1
2017-09-20T11:06:38.387Z,19.1
2017-09-20T11:07:41.172Z,19.1
2017-09-20T11:08:43.620Z,19.1
2017-09-20T11:09:46.069Z,19.2
2017-09-20T11:10:48.518Z,19.2
2017-09-20T11:11:50.967Z,19.3
2017-09-20T11:12:53.406Z,19.3
2017-09-20T11:13:55.866Z,19.4
2017-09-20T11:14:58.318Z,19.5
2017-09-20T11:16:00.762Z,19.5
2017-09-20T11:17:03.207Z,19.6
2017-09-20T11:18:05.656Z,19.7
2017-09-20T11:19:08.100Z,19.7
2017-09-20T11:20:10.546Z,19.7
2017-09-20T11:21:13.342Z,19.7
2017-09-20T11:22:16.132Z,19.7
2017-09-20T11:23:18.583Z,19.7
2017-09-20T11:24:21.050Z,19.7
2017-09-20T11:25:23.861Z,19.8
2017-09-20T11:26:26.310Z,19.8
2017-09-20T11:27:28.754Z,19.9
2017-09-20T11:28:31.239Z,19.9
2017-09-20T11:29:33.693Z,20
2017-09-20T11:30:36.147Z,20
2017-09-20T11:31:38.588Z,20
2017-09-20T11:32:41.045Z,20.1
2017-09-20T11:33:43.493Z,20.1
2017-09-20T11:34:45.945Z,20.1
2017-09-20T11:35:48.400Z,20.1
2017-09-20T11:36:50.858Z,20.2
2017-09-20T11:37:53.377Z,20.2
2017-09-20T11:38:55.857Z,20.2
2017-09-20T11:39:59.407Z,20.2
2017-09-20T11:41:01.877Z,20.2
2017-09-20T11:42:04.324Z,20.1
2017-09-20T11:43:08.037Z,20.1
2017-09-20T11:44:11.340Z,20.1
2017-09-20T11:45:13.789Z,20.1
2017-09-20T11:46:16.240Z,20.1
2017-09-20T11:47:18.694Z,20.1
2017-09-20T11:48:21.488Z,20.1
2017-09-20T11:49:24.281Z,20.2
2017-09-20T11:50:26.730Z,20.2
2017-09-20T11:51:29.300Z,20.3
2017-09-20T11:52:31.755Z,20.5
2017-09-20T11:53:34.210Z,20.5
2017-09-20T11:54:36.662Z,20.6
2017-09-20T11:55:39.112Z,20.8
2017-09-20T11:56:41.568Z,20.9
2017-09-20T11:57:44.022Z,21
2017-09-20T11:58:46.815Z,21.1
2017-09-20T11:59:49.262Z,21.2
2017-09-20T12:00:51.716Z,21.4
2017-09-20T12:01:54.165Z,21.5
2017-09-20T12:02:56.624Z,21.6
2017-09-20T12:03:59.412Z,21.6
2017-09-20T12:05:01.866Z,21.7
2017-09-20T12:06:05.001Z,21.7
2017-09-20T12:07:07.459Z,21.7
2017-09-20T12:08:09.916Z,21.7
2017-09-20T12:09:12.387Z,21.7
2017-09-20T12:10:14.839Z,21.7
2017-09-20T12:11:17.293Z,21.7
2017-09-20T12:12:19.753Z,21.6
2017-09-20T12:13:22.208Z,21.7
2017-09-20T12:14:24.652Z,21.6
2017-09-20T12:15:27.104Z,21.6
2017-09-20T12:16:29.899Z,21.5
2017-09-20T12:17:32.356Z,21.5
2017-09-20T12:18:34.811Z,21.4
2017-09-20T12:19:37.263Z,21.3
2017-09-20T12:20:39.710Z,21.2
2017-09-20T12:21:42.309Z,21.2
2017-09-20T12:22:45.170Z,21.1
2017-09-20T12:23:47.630Z,21
2017-09-20T12:24:50.076Z,21
2017-09-20T12:25:52.894Z,21
2017-09-20T12:26:55.346Z,21
2017-09-20T12:27:57.796Z,21
2017-09-20T12:29:00.254Z,21
2017-09-20T12:30:02.709Z,21
2017-09-20T12:31:05.153Z,21
2017-09-20T12:32:07.605Z,21
2017-09-20T12:33:10.092Z,21
2017-09-20T12:34:12.929Z,21
2017-09-20T12:35:15.375Z,21
2017-09-20T12:36:18.184Z,21.1
2017-09-20T12:37:20.634Z,21
2017-09-20T12:38:23.129Z,21
2017-09-20T12:39:25.933Z,21
2017-09-20T12:40:28.387Z,21
2017-09-20T12:41:30.838Z,21
2017-09-20T12:42:33.296Z,20.9
2017-09-20T12:43:35.751Z,20.9
2017-09-20T12:44:38.212Z,20.8
2017-09-20T12:45:40.655Z,20.8
2017-09-20T12:46:43.100Z,20.7
2017-09-20T12:47:45.558Z,20.7
2017-09-20T12:48:48.013Z,20.6
2017-09-20T12:49:50.800Z,20.7
2017-09-20T12:50:53.265Z,20.6
2017-09-20T12:51:55.710Z,20.6
2017-09-20T12:52:58.162Z,20.6
2017-09-20T12:54:00.616Z,20.6
2017-09-20T12:55:03.463Z,20.6
2017-09-20T12:56:05.915Z,20.6
2017-09-20T12:57:08.751Z,20.6
2017-09-20T12:58:11.556Z,20.6
2017-09-20T12:59:14.435Z,20.6
2017-09-20T13:00:17.235Z,20.6
2017-09-20T13:01:20.023Z,20.6
2017-09-20T13:02:22.481Z,20.6
2017-09-20T13:03:24.937Z,20.6
2017-09-20T13:04:27.400Z,20.5
2017-09-20T13:05:30.198Z,20.6
2017-09-20T13:06:32.650Z,20.7
2017-09-20T13:07:35.796Z,20.8
2017-09-20T13:08:38.248Z,20.8
2017-09-20T13:09:40.718Z,20.9
2017-09-20T13:10:43.170Z,21.1
2017-09-20T13:11:45.986Z,21.3
2017-09-20T13:12:48.438Z,21.4
2017-09-20T13:13:50.891Z,21.7
2017-09-20T13:14:53.344Z,21.9
2017-09-20T13:15:55.794Z,22.1
2017-09-20T13:16:58.312Z,22.2
2017-09-20T13:18:00.883Z,22.4
2017-09-20T13:19:03.352Z,22.5
2017-09-20T13:20:05.801Z,22.6
2017-09-20T13:21:08.260Z,22.6
2017-09-20T13:22:10.706Z,22.7
2017-09-20T13:23:13.157Z,22.7
2017-09-20T13:24:15.971Z,22.7
2017-09-20T13:25:18.429Z,22.7
2017-09-20T13:26:20.876Z,22.7
2017-09-20T13:27:23.704Z,22.7
2017-09-20T13:28:26.157Z,22.7
2017-09-20T13:29:28.964Z,22.7
2017-09-20T13:30:31.417Z,22.6
2017-09-20T13:31:33.880Z,22.6
2017-09-20T13:32:36.671Z,22.6
2017-09-20T13:33:39.128Z,22.5
2017-09-20T13:34:41.583Z,22.5
2017-09-20T13:35:44.041Z,22.4
2017-09-20T13:36:46.490Z,22.3
2017-09-20T13:37:49.295Z,22.2
2017-09-20T13:38:52.093Z,22.1
2017-09-20T13:39:54.557Z,22.1
2017-09-20T13:40:57.015Z,22
2017-09-20T13:41:59.467Z,21.9
2017-09-20T13:43:01.923Z,21.9
2017-09-20T13:44:04.382Z,21.7
2017-09-20T13:45:06.830Z,21.6
2017-09-20T13:46:09.299Z,21.6
2017-09-20T13:47:12.105Z,21.5
2017-09-20T13:48:14.563Z,21.4
2017-09-20T13:49:17.019Z,21.3
2017-09-20T13:50:19.475Z,21.3
2017-09-20T13:51:21.929Z,21.2
2017-09-20T13:52:24.396Z,21.2
2017-09-20T13:53:27.196Z,21.1
2017-09-20T13:54:29.642Z,21
2017-09-20T13:55:32.095Z,21
2017-09-20T13:56:34.550Z,20.9
2017-09-20T13:57:37.686Z,20.9